Time;durP1;ratioP1;P1;durP2;ratioP2;P2;SDS_P1;SDS_P2;PMS_P1;PMS_P2;Temp;Humidity;BMP_temperature;BMP_pressure;BME280_temperature;BME280_humidity;BME280_pressure;Samples;Min_cycle;Max_cycle;Signal;HPM_P1;HPM_P2
2022/08/12 00:43:39;;;;;;;4.80;3.40;;;;;;;;;;5133819;28;20396;-65
2022/08/12 00:48:51;;;;;;;4.60;3.70;;;;;;;;;;5134160;28;20893;-65
2022/08/12 00:51:20;;;;;;;6.00;3.57;;;;;;;;;;5134019;28;20521;-65
2022/08/12 00:53:47;;;;;;;4.10;3.80;;;;;;;;;;5133627;28;20449;-65
2022/08/12 00:56:14;;;;;;;4.90;3.50;;;;;;;;;;5134029;28;20800;-65
2022/08/12 00:58:47;;;;;;;4.00;3.60;;;;;;;;;;5134073;28;20450;-65
2022/08/12 01:01:15;;;;;;;4.30;3.77;;;;;;;;;;5137246;27;20901;-65
2022/08/12 01:12:00;;;;;;;4.10;3.70;;;;;;;;;;5137710;27;20525;-65
2022/08/12 01:14:28;;;;;;;5.27;3.63;;;;;;;;;;5137079;27;20476;-65
2022/08/12 01:16:56;;;;;;;7.10;3.77;;;;;;;;;;5137461;27;20547;-65
2022/08/12 01:19:24;;;;;;;4.47;3.77;;;;;;;;;;5137396;27;20602;-65
2022/08/12 01:22:13;;;;;;;4.53;3.50;;;;;;;;;;5137125;27;20451;-65
2022/08/12 01:24:50;;;;;;;3.90;3.60;;;;;;;;;;5137699;27;20421;-64
2022/08/12 01:27:19;;;;;;;8.27;5.63;;;;;;;;;;5136951;27;20994;-64
2022/08/12 01:29:47;;;;;;;6.03;5.00;;;;;;;;;;5136862;27;20452;-64
2022/08/12 01:32:16;;;;;;;6.53;5.17;;;;;;;;;;5137395;27;20797;-64
2022/08/12 01:34:47;;;;;;;9.53;5.87;;;;;;;;;;5137176;27;20522;-64
2022/08/12 01:37:16;;;;;;;7.90;5.73;;;;;;;;;;5137725;27;20436;-65
2022/08/12 01:39:46;;;;;;;8.70;6.73;;;;;;;;;;5137366;27;20443;-64
2022/08/12 01:42:16;;;;;;;8.57;7.50;;;;;;;;;;5137435;27;20475;-64
2022/08/12 01:44:44;;;;;;;14.20;8.50;;;;;;;;;;5137202;27;20459;-64
2022/08/12 01:47:17;;;;;;;11.97;7.87;;;;;;;;;;5137352;27;20475;-64
2022/08/12 01:49:50;;;;;;;11.53;9.40;;;;;;;;;;5137162;27;20424;-65
2022/08/12 01:52:22;;;;;;;14.83;9.70;;;;;;;;;;5137095;27;20520;-65
2022/08/12 01:54:50;;;;;;;13.90;10.27;;;;;;;;;;5137152;27;20439;-65
2022/08/12 01:57:28;;;;;;;21.80;13.20;;;;;;;;;;5136739;27;20450;-64
2022/08/12 02:00:00;;;;;;;24.27;16.30;;;;;;;;;;5136339;27;20473;-64
2022/08/12 02:02:33;;;;;;;29.37;18.63;;;;;;;;;;5136557;27;20519;-64
2022/08/12 02:11:18;;;;;;;29.33;17.53;;;;;;;;;;5135823;27;20395;-64
2022/08/12 02:13:57;;;;;;;22.70;17.60;;;;;;;;;;5136559;27;20867;-64
2022/08/12 02:16:33;;;;;;;23.00;16.63;;;;;;;;;;5136290;27;20443;-64
2022/08/12 02:19:05;;;;;;;25.30;15.33;;;;;;;;;;5136361;27;20431;-64
2022/08/12 02:21:39;;;;;;;21.30;14.40;;;;;;;;;;5135904;27;20448;-65
2022/08/12 02:24:07;;;;;;;20.33;14.30;;;;;;;;;;5135973;27;20427;-64
2022/08/12 02:26:36;;;;;;;23.40;12.37;;;;;;;;;;5136199;27;20487;-63
2022/08/12 02:29:06;;;;;;;17.03;12.03;;;;;;;;;;5135821;27;20448;-64
2022/08/12 02:31:34;;;;;;;15.70;11.83;;;;;;;;;;5135757;27;20424;-65
2022/08/12 02:34:02;;;;;;;13.50;10.50;;;;;;;;;;5135673;27;20440;-65
2022/08/12 02:36:31;;;;;;;21.70;12.43;;;;;;;;;;5135807;27;20542;-65
2022/08/12 02:38:59;;;;;;;16.77;12.70;;;;;;;;;;5135878;27;20469;-64
2022/08/12 02:41:27;;;;;;;18.83;14.67;;;;;;;;;;5135818;27;20435;-64
2022/08/12 02:43:56;;;;;;;36.90;23.57;;;;;;;;;;5135406;27;21014;-64
2022/08/12 02:46:29;;;;;;;21.10;15.70;;;;;;;;;;5135686;27;20826;-65
2022/08/12 02:49:00;;;;;;;35.03;22.07;;;;;;;;;;5135852;27;20481;-64
2022/08/12 02:51:30;;;;;;;56.03;35.47;;;;;;;;;;5135199;27;20920;-64
2022/08/12 02:53:58;;;;;;;54.63;26.20;;;;;;;;;;5136379;27;20457;-65
2022/08/12 02:56:26;;;;;;;42.53;29.50;;;;;;;;;;5135098;27;20445;-65
2022/08/12 02:58:54;;;;;;;48.93;30.63;;;;;;;;;;5135186;27;20435;-64
2022/08/12 03:01:26;;;;;;;45.63;31.53;;;;;;;;;;5135315;27;20869;-65
2022/08/12 03:03:57;;;;;;;43.53;29.50;;;;;;;;;;5135057;27;20419;-65
2022/08/12 03:06:27;;;;;;;46.93;28.77;;;;;;;;;;5135375;27;20512;-65
2022/08/12 03:08:56;;;;;;;44.57;28.57;;;;;;;;;;5135366;27;20830;-64
2022/08/12 03:11:26;;;;;;;42.20;28.40;;;;;;;;;;5135145;27;20530;-64
2022/08/12 03:13:54;;;;;;;42.10;27.80;;;;;;;;;;5134907;27;20441;-64
2022/08/12 03:16:22;;;;;;;42.10;26.10;;;;;;;;;;5135476;27;20463;-64
2022/08/12 03:18:50;;;;;;;37.37;22.87;;;;;;;;;;5134800;27;20956;-64
2022/08/12 03:21:19;;;;;;;30.27;19.30;;;;;;;;;;5134757;27;20474;-64
2022/08/12 03:23:47;;;;;;;26.80;16.70;;;;;;;;;;5135197;27;20438;-64
2022/08/12 03:26:14;;;;;;;29.87;18.10;;;;;;;;;;5134809;27;20443;-64
2022/08/12 03:28:52;;;;;;;25.20;17.60;;;;;;;;;;5135303;27;20517;-64
2022/08/12 03:31:21;;;;;;;23.23;15.70;;;;;;;;;;5135080;27;20518;-65
2022/08/12 03:33:49;;;;;;;25.07;15.47;;;;;;;;;;5135089;27;20491;-64
2022/08/12 03:36:20;;;;;;;21.17;15.27;;;;;;;;;;5134440;27;20529;-65
2022/08/12 03:38:58;;;;;;;23.43;14.60;;;;;;;;;;5134879;27;20466;-65
2022/08/12 03:41:34;;;;;;;18.63;13.57;;;;;;;;;;5134783;27;20427;-64
2022/08/12 04:00:37;;;;;;;16.67;11.93;;;;;;;;;;5134441;27;20430;-64
2022/08/12 04:03:50;;;;;;;21.03;12.13;;;;;;;;;;5134530;28;20482;-65
2022/08/12 04:05:52;;;;;;;26.07;17.57;;;;;;;;;;5134343;28;20889;-64
2022/08/12 04:08:23;;;;;;;21.77;12.60;;;;;;;;;;5134083;28;20557;-64
2022/08/12 04:13:35;;;;;;;29.00;11.90;;;;;;;;;;5133325;28;20398;-65
2022/08/12 04:16:05;;;;;;;13.87;10.10;;;;;;;;;;5133754;28;20876;-65
2022/08/12 04:18:32;;;;;;;16.20;11.00;;;;;;;;;;5133361;28;20680;-65
2022/08/12 04:21:01;;;;;;;19.10;10.50;;;;;;;;;;5133250;28;20477;-65
2022/08/12 04:23:30;;;;;;;22.60;10.10;;;;;;;;;;5133865;28;20793;-64
2022/08/12 04:25:58;;;;;;;15.83;8.50;;;;;;;;;;5133848;28;20449;-65
2022/08/12 04:28:27;;;;;;;16.30;9.50;;;;;;;;;;5133549;28;20903;-64
2022/08/12 04:30:56;;;;;;;12.07;9.50;;;;;;;;;;5134012;28;20931;-64
2022/08/12 04:33:25;;;;;;;13.53;9.60;;;;;;;;;;5133813;27;20447;-65
2022/08/12 04:35:53;;;;;;;19.80;9.30;;;;;;;;;;5136217;27;20442;-64
2022/08/12 04:38:20;;;;;;;14.33;8.10;;;;;;;;;;5138114;27;20529;-64
2022/08/12 04:40:50;;;;;;;10.87;8.30;;;;;;;;;;5138192;27;20524;-65
2022/08/12 04:43:17;;;;;;;17.77;7.67;;;;;;;;;;5138090;27;20859;-64
2022/08/12 04:45:48;;;;;;;8.70;7.03;;;;;;;;;;5137647;27;20858;-65
2022/08/12 04:48:16;;;;;;;15.00;8.83;;;;;;;;;;5137194;27;20466;-64
2022/08/12 04:50:44;;;;;;;13.13;7.70;;;;;;;;;;5138349;27;20439;-65
2022/08/12 04:53:12;;;;;;;10.37;7.37;;;;;;;;;;5137815;27;20438;-65
2022/08/12 04:55:40;;;;;;;12.13;7.43;;;;;;;;;;5137591;27;20499;-64
2022/08/12 04:58:08;;;;;;;11.33;7.80;;;;;;;;;;5137780;27;20554;-64
2022/08/12 05:00:36;;;;;;;14.20;7.53;;;;;;;;;;5137852;27;20437;-64
2022/08/12 05:03:05;;;;;;;11.97;7.43;;;;;;;;;;5137398;27;20535;-64
2022/08/12 05:05:32;;;;;;;14.33;7.30;;;;;;;;;;5137921;27;20432;-64
2022/08/12 05:07:59;;;;;;;7.80;6.40;;;;;;;;;;5137224;27;20466;-65
2022/08/12 05:10:26;;;;;;;8.10;6.50;;;;;;;;;;5135803;27;20438;-65
2022/08/12 05:12:56;;;;;;;10.30;6.60;;;;;;;;;;5135059;27;20440;-65
2022/08/12 05:15:25;;;;;;;12.60;6.27;;;;;;;;;;5136149;27;20508;-72
2022/08/12 05:17:52;;;;;;;11.83;6.63;;;;;;;;;;5136943;27;20529;-68
2022/08/12 05:20:21;;;;;;;8.10;6.80;;;;;;;;;;5136650;27;20449;-68
2022/08/12 05:22:49;;;;;;;11.90;7.57;;;;;;;;;;5137318;27;20443;-67
2022/08/12 05:25:16;;;;;;;11.57;6.53;;;;;;;;;;5137263;27;20500;-66
2022/08/12 05:27:44;;;;;;;7.00;6.30;;;;;;;;;;5137175;27;20840;-67
2022/08/12 05:30:12;;;;;;;7.43;6.03;;;;;;;;;;5136819;27;20440;-67
2022/08/12 05:32:41;;;;;;;9.83;6.07;;;;;;;;;;5136790;27;20438;-67
2022/08/12 05:35:09;;;;;;;7.10;6.33;;;;;;;;;;5136841;27;20533;-67
2022/08/12 05:37:36;;;;;;;8.90;6.27;;;;;;;;;;5137088;27;20933;-67
2022/08/12 05:40:05;;;;;;;6.80;6.03;;;;;;;;;;5136790;27;20530;-68
2022/08/12 05:42:32;;;;;;;9.53;5.77;;;;;;;;;;5136617;27;21005;-68
2022/08/12 05:45:00;;;;;;;9.20;5.70;;;;;;;;;;5137157;27;20448;-67
2022/08/12 05:47:28;;;;;;;9.20;6.17;;;;;;;;;;5136725;27;20472;-67
2022/08/12 05:49:57;;;;;;;10.13;5.67;;;;;;;;;;5137724;27;20431;-67
2022/08/12 05:52:24;;;;;;;9.67;6.43;;;;;;;;;;5136666;27;20436;-67
2022/08/12 05:54:51;;;;;;;10.07;6.60;;;;;;;;;;5136661;27;20550;-66
2022/08/12 05:57:18;;;;;;;12.87;6.60;;;;;;;;;;5136511;27;20450;-68
2022/08/12 05:59:46;;;;;;;10.33;6.70;;;;;;;;;;5136363;27;20455;-68
2022/08/12 06:02:14;;;;;;;10.43;6.80;;;;;;;;;;5136175;27;20531;-68
2022/08/12 06:04:41;;;;;;;8.57;6.03;;;;;;;;;;5137303;27;20488;-67
2022/08/12 06:07:11;;;;;;;9.63;6.30;;;;;;;;;;5136152;27;20512;-67
2022/08/12 06:09:38;;;;;;;9.80;6.80;;;;;;;;;;5136046;27;20433;-66
2022/08/12 06:12:06;;;;;;;13.77;6.50;;;;;;;;;;5136473;27;20440;-67
2022/08/12 06:14:35;;;;;;;13.53;7.10;;;;;;;;;;5135823;27;20481;-67
2022/08/12 06:17:02;;;;;;;15.37;7.37;;;;;;;;;;5136066;27;20445;-67
2022/08/12 06:19:30;;;;;;;10.40;5.97;;;;;;;;;;5136219;27;20515;-67
2022/08/12 06:21:57;;;;;;;8.37;6.37;;;;;;;;;;5136232;27;20508;-67
2022/08/12 06:24:28;;;;;;;12.20;6.50;;;;;;;;;;5135783;27;20533;-67
2022/08/12 06:26:58;;;;;;;9.83;6.47;;;;;;;;;;5136412;27;20451;-67
2022/08/12 06:29:25;;;;;;;15.97;6.63;;;;;;;;;;5135663;27;20468;-67
2022/08/12 06:31:52;;;;;;;12.60;7.30;;;;;;;;;;5135893;27;20445;-67
2022/08/12 06:34:20;;;;;;;13.90;6.30;;;;;;;;;;5135506;27;20443;-67
2022/08/12 06:36:47;;;;;;;8.37;6.63;;;;;;;;;;5135664;27;20472;-67
2022/08/12 06:39:15;;;;;;;13.60;6.67;;;;;;;;;;5135796;27;20452;-67
2022/08/12 06:44:29;;;;;;;7.80;5.83;;;;;;;;;;5135550;27;20440;-67
2022/08/12 06:46:56;;;;;;;6.87;5.93;;;;;;;;;;5135399;27;20452;-67
2022/08/12 06:49:24;;;;;;;11.77;7.07;;;;;;;;;;5135434;27;20572;-67
2022/08/12 06:51:54;;;;;;;11.50;6.57;;;;;;;;;;5135339;27;20972;-68
2022/08/12 06:54:23;;;;;;;15.40;6.50;;;;;;;;;;5135364;27;20498;-67
2022/08/12 06:56:54;;;;;;;9.70;6.00;;;;;;;;;;5135731;27;20450;-67
2022/08/12 06:59:21;;;;;;;11.03;6.90;;;;;;;;;;5134671;27;20907;-67
2022/08/12 07:01:48;;;;;;;8.40;7.00;;;;;;;;;;5135534;27;20520;-67
2022/08/12 07:04:15;;;;;;;8.40;6.00;;;;;;;;;;5134798;27;20528;-67
2022/08/12 07:06:44;;;;;;;7.87;5.93;;;;;;;;;;5135293;27;20525;-67
2022/08/12 07:09:13;;;;;;;12.37;6.63;;;;;;;;;;5135121;27;20505;-67
2022/08/12 07:11:42;;;;;;;11.30;7.13;;;;;;;;;;5135155;27;20498;-66
2022/08/12 07:14:10;;;;;;;11.40;6.90;;;;;;;;;;5135122;27;20584;-67
2022/08/12 07:19:21;;;;;;;10.00;6.80;;;;;;;;;;5134308;27;20456;-67
2022/08/12 07:21:50;;;;;;;12.37;6.50;;;;;;;;;;5135021;27;20444;-67
2022/08/12 07:24:17;;;;;;;9.10;6.00;;;;;;;;;;5134546;27;20430;-67
2022/08/12 07:26:44;;;;;;;9.93;6.43;;;;;;;;;;5135005;27;20793;-67
2022/08/12 07:29:13;;;;;;;7.40;6.13;;;;;;;;;;5134451;27;20466;-67
2022/08/12 07:31:41;;;;;;;14.80;7.20;;;;;;;;;;5134654;27;21090;-66
2022/08/12 07:34:08;;;;;;;14.47;7.20;;;;;;;;;;5134774;27;20438;-67
2022/08/12 07:36:36;;;;;;;11.37;5.70;;;;;;;;;;5134533;27;20517;-66
2022/08/12 07:39:03;;;;;;;11.70;6.33;;;;;;;;;;5134808;27;20532;-67
2022/08/12 07:41:32;;;;;;;12.43;5.60;;;;;;;;;;5134531;27;20544;-67
2022/08/12 07:44:00;;;;;;;14.87;5.90;;;;;;;;;;5133982;27;20533;-67
2022/08/12 07:46:30;;;;;;;6.60;5.40;;;;;;;;;;5134725;27;20471;-66
2022/08/12 07:48:58;;;;;;;10.20;5.47;;;;;;;;;;5134409;27;21006;-67
2022/08/12 07:51:26;;;;;;;10.13;5.50;;;;;;;;;;5134372;27;20473;-67
2022/08/12 07:53:54;;;;;;;6.27;4.63;;;;;;;;;;5134283;27;20534;-67
2022/08/12 07:56:21;;;;;;;6.00;5.20;;;;;;;;;;5134877;27;20450;-67
2022/08/12 07:58:48;;;;;;;9.73;4.97;;;;;;;;;;5134137;27;20538;-67
2022/08/12 08:01:20;;;;;;;9.00;4.43;;;;;;;;;;5134736;27;20524;-67
2022/08/12 08:06:41;;;;;;;9.23;4.53;;;;;;;;;;5134083;28;20504;-68
2022/08/12 08:09:09;;;;;;;8.80;4.23;;;;;;;;;;5133516;27;20473;-67
2022/08/12 08:14:24;;;;;;;5.87;4.47;;;;;;;;;;5138023;27;20498;-67
2022/08/12 08:16:51;;;;;;;4.40;4.00;;;;;;;;;;5138673;27;20450;-67
2022/08/12 08:19:22;;;;;;;6.27;4.50;;;;;;;;;;5138006;27;20533;-66
2022/08/12 08:21:49;;;;;;;5.10;4.63;;;;;;;;;;5138570;27;20426;-69
2022/08/12 08:24:17;;;;;;;8.40;4.67;;;;;;;;;;5138101;27;20528;-67
2022/08/12 08:26:46;;;;;;;6.23;4.47;;;;;;;;;;5138479;27;20419;-66
2022/08/12 08:29:14;;;;;;;5.67;4.40;;;;;;;;;;5138751;27;20473;-66
2022/08/12 08:31:42;;;;;;;11.30;5.00;;;;;;;;;;5138456;27;20443;-67
2022/08/12 08:34:09;;;;;;;9.90;4.47;;;;;;;;;;5138070;27;20446;-67
2022/08/12 08:36:38;;;;;;;6.47;4.40;;;;;;;;;;5137897;27;20438;-67
2022/08/12 08:39:06;;;;;;;4.10;3.80;;;;;;;;;;5138275;27;20463;-67
2022/08/12 08:44:15;;;;;;;5.83;3.70;;;;;;;;;;5092738;27;20886;-66
2022/08/12 08:46:43;;;;;;;5.67;4.47;;;;;;;;;;5138069;27;20787;-67
2022/08/12 08:49:10;;;;;;;7.03;3.87;;;;;;;;;;5138273;27;20478;-67
2022/08/12 08:51:39;;;;;;;6.57;3.70;;;;;;;;;;5137918;27;20456;-67
2022/08/12 08:54:07;;;;;;;8.23;3.90;;;;;;;;;;5138380;27;20784;-67
2022/08/12 08:56:42;;;;;;;5.23;4.10;;;;;;;;;;5137513;27;20526;-67
2022/08/12 08:59:10;;;;;;;5.60;3.97;;;;;;;;;;5137599;27;20937;-66
2022/08/12 09:01:37;;;;;;;5.93;4.07;;;;;;;;;;5137786;27;20558;-67
2022/08/12 09:04:04;;;;;;;5.73;3.33;;;;;;;;;;5137509;27;20534;-67
2022/08/12 09:06:32;;;;;;;5.17;3.80;;;;;;;;;;5137723;27;20482;-67
2022/08/12 09:09:03;;;;;;;5.30;3.30;;;;;;;;;;5137631;27;20444;-68
2022/08/12 09:14:15;;;;;;;6.23;3.53;;;;;;;;;;5137486;27;20468;-67
2022/08/12 09:16:42;;;;;;;3.73;3.40;;;;;;;;;;5137472;27;20453;-67
2022/08/12 09:19:13;;;;;;;8.13;3.40;;;;;;;;;;5137148;27;20554;-67
2022/08/12 09:21:41;;;;;;;3.53;3.20;;;;;;;;;;5137054;27;20430;-66
2022/08/12 09:24:09;;;;;;;4.30;3.57;;;;;;;;;;5137096;27;20533;-67
2022/08/12 09:26:37;;;;;;;9.33;4.67;;;;;;;;;;5136823;27;20439;-67
2022/08/12 09:29:04;;;;;;;5.17;3.30;;;;;;;;;;5137253;27;20481;-67
2022/08/12 09:31:34;;;;;;;8.00;3.60;;;;;;;;;;5136806;27;20951;-67
2022/08/12 09:34:01;;;;;;;7.33;4.03;;;;;;;;;;5137179;27;20442;-67
2022/08/12 09:36:30;;;;;;;6.33;3.40;;;;;;;;;;5137007;27;20446;-67
2022/08/12 09:39:01;;;;;;;8.60;4.50;;;;;;;;;;5137096;27;20427;-67
2022/08/12 09:41:30;;;;;;;5.50;2.90;;;;;;;;;;5136695;27;20431;-67
2022/08/12 09:46:50;;;;;;;7.70;3.17;;;;;;;;;;5087869;27;20396;-67
2022/08/12 09:49:17;;;;;;;4.97;3.20;;;;;;;;;;5136558;27;20450;-68
2022/08/12 09:51:46;;;;;;;3.20;3.00;;;;;;;;;;5136394;27;20953;-67
2022/08/12 09:54:14;;;;;;;5.73;3.00;;;;;;;;;;5136760;27;20453;-67
2022/08/12 09:56:42;;;;;;;4.30;3.30;;;;;;;;;;5136879;27;20413;-67
2022/08/12 09:59:10;;;;;;;3.60;2.60;;;;;;;;;;5136646;27;20423;-67
2022/08/12 10:01:38;;;;;;;5.73;3.70;;;;;;;;;;5136286;27;20507;-67
2022/08/12 10:04:09;;;;;;;3.07;2.87;;;;;;;;;;5136275;27;20958;-66
2022/08/12 10:06:36;;;;;;;3.30;3.00;;;;;;;;;;5136388;27;20462;-67
2022/08/12 10:09:05;;;;;;;3.40;3.10;;;;;;;;;;5136017;27;20473;-69
2022/08/12 10:14:18;;;;;;;4.97;3.40;;;;;;;;;;5136333;27;20817;-67
2022/08/12 10:16:48;;;;;;;3.30;3.00;;;;;;;;;;5135851;27;20999;-66
2022/08/12 10:19:17;;;;;;;5.20;2.73;;;;;;;;;;5136472;27;20499;-67
2022/08/12 10:21:45;;;;;;;3.20;2.60;;;;;;;;;;5135950;27;20452;-67
2022/08/12 10:24:14;;;;;;;4.43;3.03;;;;;;;;;;5136057;27;20428;-67
2022/08/12 10:29:40;;;;;;;5.77;3.00;;;;;;;;;;5135765;27;20592;-66
2022/08/12 10:32:08;;;;;;;9.07;3.37;;;;;;;;;;5135399;27;20487;-66
2022/08/12 10:34:36;;;;;;;5.23;3.03;;;;;;;;;;5135738;27;20412;-67
2022/08/12 10:37:05;;;;;;;3.30;3.10;;;;;;;;;;5135508;27;20408;-67
2022/08/12 10:39:35;;;;;;;5.73;2.83;;;;;;;;;;5135909;27;20860;-67
2022/08/12 10:44:49;;;;;;;3.10;2.80;;;;;;;;;;5136140;27;20892;-67
2022/08/12 10:47:18;;;;;;;5.90;2.90;;;;;;;;;;5135759;27;20467;-67
2022/08/12 10:49:46;;;;;;;2.67;2.47;;;;;;;;;;5135676;27;20495;-68
2022/08/12 10:52:13;;;;;;;3.80;2.77;;;;;;;;;;5135286;27;20453;-67
2022/08/12 10:54:41;;;;;;;3.40;3.10;;;;;;;;;;5136182;27;20867;-67
2022/08/12 10:57:08;;;;;;;3.33;2.70;;;;;;;;;;5135424;27;20406;-67
2022/08/12 10:59:35;;;;;;;6.50;2.70;;;;;;;;;;5135268;27;20914;-67
2022/08/12 11:02:06;;;;;;;3.70;2.90;;;;;;;;;;5135381;27;20523;-68
2022/08/12 11:04:34;;;;;;;4.47;3.20;;;;;;;;;;5135186;27;20418;-67
2022/08/12 11:07:02;;;;;;;3.20;2.90;;;;;;;;;;5135535;27;20438;-67
2022/08/12 11:09:31;;;;;;;6.10;3.20;;;;;;;;;;5134979;27;20462;-67
2022/08/12 11:12:01;;;;;;;4.00;2.83;;;;;;;;;;5135225;27;20438;-68
2022/08/12 11:14:31;;;;;;;3.67;2.50;;;;;;;;;;5135184;27;20844;-68
2022/08/12 11:16:59;;;;;;;5.33;2.70;;;;;;;;;;5135606;27;20777;-67
2022/08/12 11:19:27;;;;;;;3.10;2.90;;;;;;;;;;5134842;27;20532;-67
2022/08/12 11:21:55;;;;;;;10.53;3.20;;;;;;;;;;5134980;27;20417;-66
2022/08/12 11:24:23;;;;;;;4.10;2.80;;;;;;;;;;5135562;27;20879;-67
2022/08/12 11:26:51;;;;;;;3.50;2.50;;;;;;;;;;5134903;27;20529;-67
2022/08/12 11:29:18;;;;;;;5.07;2.93;;;;;;;;;;5134931;27;20570;-67
2022/08/12 11:31:45;;;;;;;3.90;3.03;;;;;;;;;;5134863;27;20455;-67
2022/08/12 11:34:13;;;;;;;4.30;3.30;;;;;;;;;;5134971;27;20861;-67
2022/08/12 11:36:49;;;;;;;8.43;3.20;;;;;;;;;;5134541;27;20446;-67
2022/08/12 11:39:16;;;;;;;4.60;2.90;;;;;;;;;;5135131;27;20423;-67
2022/08/12 11:41:44;;;;;;;6.27;3.20;;;;;;;;;;5134418;27;20974;-67
2022/08/12 11:44:11;;;;;;;3.13;2.93;;;;;;;;;;5134619;27;20752;-68
2022/08/12 11:46:38;;;;;;;7.83;6.50;;;;;;;;;;5134744;27;20420;-67
2022/08/12 11:49:06;;;;;;;4.40;3.43;;;;;;;;;;5134533;27;20877;-66
2022/08/12 11:51:34;;;;;;;4.10;3.00;;;;;;;;;;5135204;27;20409;-67
2022/08/12 11:54:02;;;;;;;3.10;2.80;;;;;;;;;;5134254;27;20535;-67
2022/08/12 11:56:29;;;;;;;4.97;3.17;;;;;;;;;;5134113;27;20418;-67
2022/08/12 11:58:57;;;;;;;3.77;2.97;;;;;;;;;;5134482;27;20871;-67
2022/08/12 12:01:24;;;;;;;5.77;3.50;;;;;;;;;;5134860;27;20422;-67
2022/08/12 12:03:51;;;;;;;4.33;2.70;;;;;;;;;;5134067;27;20528;-67
2022/08/12 12:06:20;;;;;;;4.47;2.80;;;;;;;;;;5134767;27;20449;-67
2022/08/12 12:08:48;;;;;;;3.07;2.87;;;;;;;;;;5133982;28;20407;-67
2022/08/12 12:11:17;;;;;;;3.23;2.80;;;;;;;;;;5134144;28;20986;-67
2022/08/12 12:13:44;;;;;;;4.40;2.90;;;;;;;;;;5134124;28;20508;-66
2022/08/12 12:16:11;;;;;;;3.30;3.00;;;;;;;;;;5135156;28;20533;-67
2022/08/12 12:18:38;;;;;;;3.40;2.70;;;;;;;;;;5134313;28;20518;-67
2022/08/12 12:21:06;;;;;;;5.90;3.40;;;;;;;;;;5133992;28;20537;-67
2022/08/12 12:23:34;;;;;;;5.03;3.60;;;;;;;;;;5133844;28;20525;-67
2022/08/12 12:26:01;;;;;;;3.33;3.03;;;;;;;;;;5134271;28;20503;-67
2022/08/12 12:28:30;;;;;;;8.17;5.40;;;;;;;;;;5134384;28;20528;-67
2022/08/12 12:30:57;;;;;;;6.00;2.90;;;;;;;;;;5134253;28;20552;-67
2022/08/12 12:33:25;;;;;;;4.80;2.83;;;;;;;;;;5133773;28;20523;-67
2022/08/12 12:35:52;;;;;;;5.20;2.97;;;;;;;;;;5134219;28;20467;-67
2022/08/12 12:38:19;;;;;;;3.20;2.90;;;;;;;;;;5133797;28;20456;-67
2022/08/12 12:40:47;;;;;;;5.07;3.70;;;;;;;;;;5133797;28;20450;-67
2022/08/12 12:43:15;;;;;;;2.80;2.60;;;;;;;;;;5133747;28;20474;-67
2022/08/12 12:45:44;;;;;;;2.77;2.53;;;;;;;;;;5134284;28;20524;-67
2022/08/12 12:48:12;;;;;;;4.10;3.43;;;;;;;;;;5134163;28;20446;-68
2022/08/12 12:50:40;;;;;;;7.53;5.97;;;;;;;;;;5133662;28;20486;-67
2022/08/12 12:53:08;;;;;;;4.77;3.37;;;;;;;;;;5133589;28;20439;-70
2022/08/12 12:55:36;;;;;;;4.13;2.73;;;;;;;;;;5134139;27;20444;-65
2022/08/12 12:58:04;;;;;;;3.40;2.90;;;;;;;;;;5137837;27;20444;-65
2022/08/12 13:00:32;;;;;;;3.20;2.90;;;;;;;;;;5137579;27;20476;-65
2022/08/12 13:03:01;;;;;;;3.40;3.20;;;;;;;;;;5137461;27;20533;-64
2022/08/12 13:05:30;;;;;;;4.80;2.90;;;;;;;;;;5138183;27;20466;-65
2022/08/12 13:08:00;;;;;;;6.50;2.93;;;;;;;;;;5137371;27;20464;-64
2022/08/12 13:10:28;;;;;;;3.53;3.23;;;;;;;;;;5137321;27;20974;-64
2022/08/12 13:12:56;;;;;;;6.53;3.40;;;;;;;;;;5137588;27;20438;-64
2022/08/12 13:15:24;;;;;;;3.20;3.00;;;;;;;;;;5137736;27;20584;-64
2022/08/12 13:17:55;;;;;;;3.33;3.03;;;;;;;;;;5137680;27;20446;-64
2022/08/12 13:20:24;;;;;;;4.03;3.07;;;;;;;;;;5137203;27;20436;-64
2022/08/12 13:22:51;;;;;;;3.63;3.23;;;;;;;;;;5136882;27;20432;-64
2022/08/12 13:25:19;;;;;;;5.67;3.67;;;;;;;;;;5136217;27;20526;-65
2022/08/12 13:27:48;;;;;;;6.73;2.70;;;;;;;;;;5136848;27;20432;-65
2022/08/12 13:30:16;;;;;;;4.43;3.00;;;;;;;;;;5136755;27;20703;-65
2022/08/12 13:32:45;;;;;;;3.07;2.70;;;;;;;;;;5136909;27;20438;-65
2022/08/12 13:35:15;;;;;;;3.33;2.93;;;;;;;;;;5136384;27;20467;-65
2022/08/12 13:37:46;;;;;;;3.57;2.90;;;;;;;;;;5137020;27;20435;-65
2022/08/12 13:40:13;;;;;;;5.97;3.57;;;;;;;;;;5137074;27;20844;-65
2022/08/12 13:42:40;;;;;;;3.50;3.20;;;;;;;;;;5136429;27;20444;-64
2022/08/12 13:45:08;;;;;;;3.40;2.70;;;;;;;;;;5136520;27;20527;-65
2022/08/12 13:47:54;;;;;;;6.37;3.20;;;;;;;;;;5137211;27;20524;-64
2022/08/12 13:50:21;;;;;;;3.00;2.70;;;;;;;;;;5136957;27;20464;-64
2022/08/12 13:52:50;;;;;;;4.47;2.73;;;;;;;;;;5136476;27;20530;-64
2022/08/12 13:55:24;;;;;;;5.37;3.30;;;;;;;;;;5136261;27;20497;-64
2022/08/12 13:57:51;;;;;;;4.47;4.10;;;;;;;;;;5136704;27;20442;-64
2022/08/12 14:00:18;;;;;;;3.13;2.80;;;;;;;;;;5136586;27;20451;-64
2022/08/12 14:02:45;;;;;;;4.30;2.83;;;;;;;;;;5135898;27;20442;-63
2022/08/12 14:05:13;;;;;;;3.17;2.90;;;;;;;;;;5136718;27;20534;-63
2022/08/12 14:07:54;;;;;;;4.50;2.63;;;;;;;;;;5135171;27;20441;-63
2022/08/12 14:10:37;;;;;;;5.93;2.80;;;;;;;;;;5136203;27;20495;-63
2022/08/12 14:13:08;;;;;;;3.10;2.90;;;;;;;;;;5136054;27;20424;-63
2022/08/12 14:15:37;;;;;;;4.67;2.70;;;;;;;;;;5136191;27;20976;-64
2022/08/12 14:18:08;;;;;;;3.03;2.60;;;;;;;;;;5136262;27;20444;-64
2022/08/12 14:20:35;;;;;;;7.80;3.33;;;;;;;;;;5135764;27;20958;-63
2022/08/12 14:23:03;;;;;;;3.10;2.80;;;;;;;;;;5135508;27;20445;-63
2022/08/12 14:25:31;;;;;;;9.20;2.97;;;;;;;;;;5135578;27;20449;-64
2022/08/12 14:28:03;;;;;;;7.47;2.73;;;;;;;;;;5135449;27;21017;-64
2022/08/12 14:30:31;;;;;;;12.33;2.67;;;;;;;;;;5136116;27;20475;-64
2022/08/12 14:33:02;;;;;;;4.60;2.80;;;;;;;;;;5136293;27;20451;-64
2022/08/12 14:35:29;;;;;;;6.03;2.70;;;;;;;;;;5136053;27;20428;-64
2022/08/12 14:37:56;;;;;;;3.07;2.87;;;;;;;;;;5136088;27;20532;-64
2022/08/12 14:40:25;;;;;;;2.90;2.60;;;;;;;;;;5135681;27;20521;-64
2022/08/12 14:42:53;;;;;;;5.73;3.07;;;;;;;;;;5135482;27;20521;-64
2022/08/12 14:45:20;;;;;;;3.10;2.90;;;;;;;;;;5136066;27;20475;-64
2022/08/12 14:47:53;;;;;;;4.70;3.03;;;;;;;;;;5135605;27;20450;-64
2022/08/12 14:50:21;;;;;;;2.80;2.60;;;;;;;;;;5135200;27;20492;-64
2022/08/12 14:52:49;;;;;;;8.50;3.27;;;;;;;;;;5135247;27;20458;-64
2022/08/12 14:55:16;;;;;;;2.40;2.20;;;;;;;;;;5134985;27;20448;-64
2022/08/12 14:57:55;;;;;;;3.40;2.70;;;;;;;;;;5135447;27;20449;-64
2022/08/12 15:03:08;;;;;;;6.27;3.40;;;;;;;;;;5134840;27;20393;-64
2022/08/12 15:05:37;;;;;;;3.43;2.77;;;;;;;;;;5134912;27;21038;-64
2022/08/12 15:08:11;;;;;;;2.70;2.50;;;;;;;;;;5135293;27;20437;-64
2022/08/12 15:10:39;;;;;;;4.93;2.73;;;;;;;;;;5135217;27;20469;-65
2022/08/12 15:13:08;;;;;;;3.97;2.33;;;;;;;;;;5135212;27;20445;-64
2022/08/12 15:15:38;;;;;;;5.43;2.80;;;;;;;;;;5134721;27;20578;-64
2022/08/12 15:18:05;;;;;;;2.70;2.50;;;;;;;;;;5134619;27;20441;-64
2022/08/12 15:20:33;;;;;;;2.60;2.40;;;;;;;;;;5134377;27;20444;-64
2022/08/12 15:23:01;;;;;;;3.70;2.60;;;;;;;;;;5134598;27;20440;-64
2022/08/12 15:25:29;;;;;;;3.73;2.70;;;;;;;;;;5134694;27;20439;-63
2022/08/12 15:27:58;;;;;;;3.50;3.20;;;;;;;;;;5134948;27;20807;-63
2022/08/12 15:30:28;;;;;;;5.57;2.57;;;;;;;;;;5134799;27;20966;-64
2022/08/12 15:32:55;;;;;;;2.60;2.40;;;;;;;;;;5134438;27;20435;-64
2022/08/12 15:35:23;;;;;;;3.20;2.83;;;;;;;;;;5134369;27;20933;-64
2022/08/12 15:38:00;;;;;;;3.67;3.00;;;;;;;;;;5134589;27;20920;-65
2022/08/12 15:40:28;;;;;;;2.80;2.60;;;;;;;;;;5134300;27;20935;-64
2022/08/12 15:42:56;;;;;;;3.80;2.70;;;;;;;;;;5134080;27;20448;-64
2022/08/12 15:45:23;;;;;;;3.10;2.63;;;;;;;;;;5134193;27;20452;-64
2022/08/12 15:47:52;;;;;;;4.77;4.37;;;;;;;;;;5134234;27;20476;-64
2022/08/12 15:50:20;;;;;;;3.03;2.70;;;;;;;;;;5135042;27;20510;-65
2022/08/12 15:52:47;;;;;;;2.77;2.53;;;;;;;;;;5134583;27;20434;-66
2022/08/12 15:55:14;;;;;;;3.43;3.13;;;;;;;;;;5134431;27;20531;-65
2022/08/12 15:57:52;;;;;;;16.03;7.80;;;;;;;;;;5134473;27;20438;-64
2022/08/12 16:00:19;;;;;;;3.17;2.83;;;;;;;;;;5134128;27;20426;-65
2022/08/12 16:02:47;;;;;;;2.63;2.43;;;;;;;;;;5134480;27;20445;-65
2022/08/12 16:05:17;;;;;;;10.00;9.00;;;;;;;;;;5134095;27;20437;-65
2022/08/12 16:07:46;;;;;;;5.70;4.97;;;;;;;;;;5134041;27;20936;-66
2022/08/12 16:10:13;;;;;;;3.13;2.80;;;;;;;;;;5134306;28;20802;-65
2022/08/12 16:12:41;;;;;;;3.20;3.00;;;;;;;;;;5134170;28;20524;-64
2022/08/12 16:15:09;;;;;;;2.70;2.50;;;;;;;;;;5133751;28;20470;-64
2022/08/12 16:17:36;;;;;;;3.97;3.10;;;;;;;;;;5133686;28;20525;-64
2022/08/12 16:20:04;;;;;;;3.30;3.10;;;;;;;;;;5134376;28;20444;-64
2022/08/12 16:22:33;;;;;;;7.50;4.80;;;;;;;;;;5133878;28;20534;-64
2022/08/12 16:25:01;;;;;;;5.93;2.97;;;;;;;;;;5133652;28;20435;-64
2022/08/12 16:27:30;;;;;;;4.10;3.70;;;;;;;;;;5133922;28;20517;-64
2022/08/12 16:29:58;;;;;;;3.13;2.43;;;;;;;;;;5133776;27;20473;-64
2022/08/12 16:32:26;;;;;;;3.87;2.60;;;;;;;;;;5137585;27;20556;-64
2022/08/12 16:34:54;;;;;;;5.00;3.00;;;;;;;;;;5137818;27;20474;-64
2022/08/12 16:37:21;;;;;;;3.77;3.47;;;;;;;;;;5137772;27;20958;-65